Time;durP1;ratioP1;P1;durP2;ratioP2;P2;SDS_P1;SDS_P2;PMS_P1;PMS_P2;Temp;Humidity;BMP_temperature;BMP_pressure;BME280_temperature;BME280_humidity;BME280_pressure;Samples;Min_cycle;Max_cycle;Signal;HPM_P1;HPM_P2
2022/03/13 00:00:41;;;;;;;27.60;16.40;;;;;;;;;;5074641;28;20123;-61
2022/03/13 00:03:13;;;;;;;24.63;15.85;;;;;;;;;;5093029;28;20036;-61
2022/03/13 00:05:40;;;;;;;26.85;16.45;;;;;;;;;;5092504;28;20040;-61
2022/03/13 00:08:16;;;;;;;29.60;17.25;;;;;;;;;;5092831;28;20044;-61
2022/03/13 00:10:47;;;;;;;25.27;16.17;;;;;;;;;;5092315;28;20048;-61
2022/03/13 00:13:18;;;;;;;23.80;16.55;;;;;;;;;;5092601;28;20044;-61
2022/03/13 00:15:45;;;;;;;28.00;16.90;;;;;;;;;;5092680;28;20040;-61
2022/03/13 00:18:11;;;;;;;25.65;16.67;;;;;;;;;;5092652;28;20040;-61
2022/03/13 00:20:38;;;;;;;24.38;17.00;;;;;;;;;;5092043;28;20090;-61
2022/03/13 00:23:05;;;;;;;24.30;16.52;;;;;;;;;;5092624;28;20097;-61
2022/03/13 00:25:31;;;;;;;26.58;17.15;;;;;;;;;;5092317;28;20390;-61
2022/03/13 00:27:57;;;;;;;32.03;18.00;;;;;;;;;;5092591;28;20040;-61
2022/03/13 00:30:23;;;;;;;26.90;17.48;;;;;;;;;;5092604;28;20060;-61
2022/03/13 00:32:50;;;;;;;25.30;16.63;;;;;;;;;;5092488;28;20063;-61
2022/03/13 00:35:16;;;;;;;26.52;17.40;;;;;;;;;;5074117;28;20044;-61
2022/03/13 00:37:42;;;;;;;25.92;17.17;;;;;;;;;;5074019;28;20507;-61
2022/03/13 00:40:09;;;;;;;27.05;17.33;;;;;;;;;;5091685;28;20039;-61
2022/03/13 00:42:35;;;;;;;26.30;17.70;;;;;;;;;;5092393;28;20048;-61
2022/03/13 00:45:01;;;;;;;29.13;17.90;;;;;;;;;;5092511;28;20043;-61
2022/03/13 00:47:27;;;;;;;28.33;18.15;;;;;;;;;;5091863;28;20123;-61
2022/03/13 00:49:53;;;;;;;28.65;18.33;;;;;;;;;;5091272;28;20063;-61
2022/03/13 00:52:19;;;;;;;28.13;18.30;;;;;;;;;;5092122;28;20036;-62
2022/03/13 00:54:46;;;;;;;25.52;17.35;;;;;;;;;;5091365;28;20572;-62
2022/03/13 00:57:12;;;;;;;27.45;17.83;;;;;;;;;;5092316;28;20032;-61
2022/03/13 00:59:38;;;;;;;29.95;17.67;;;;;;;;;;5091834;28;20040;-61
2022/03/13 01:02:04;;;;;;;26.35;17.92;;;;;;;;;;5092180;28;20127;-61
2022/03/13 01:04:31;;;;;;;26.83;17.55;;;;;;;;;;5091732;28;20082;-61
2022/03/13 01:06:56;;;;;;;24.50;16.33;;;;;;;;;;5091807;28;20046;-61
2022/03/13 01:09:22;;;;;;;27.55;17.17;;;;;;;;;;5091738;28;20048;-61
2022/03/13 01:11:48;;;;;;;28.73;16.98;;;;;;;;;;5073523;28;20055;-61
2022/03/13 01:14:16;;;;;;;25.52;17.45;;;;;;;;;;5092068;28;20083;-61
2022/03/13 01:16:42;;;;;;;26.52;17.30;;;;;;;;;;5091974;28;20448;-61
2022/03/13 01:19:08;;;;;;;26.95;17.75;;;;;;;;;;5091494;28;20115;-61
2022/03/13 01:21:37;;;;;;;28.02;18.45;;;;;;;;;;5091219;28;20102;-61
2022/03/13 01:24:06;;;;;;;28.92;17.77;;;;;;;;;;5092034;28;20052;-61
2022/03/13 01:26:34;;;;;;;28.85;17.80;;;;;;;;;;5091947;28;20059;-61
2022/03/13 01:29:01;;;;;;;24.17;16.98;;;;;;;;;;5073623;28;20165;-61
2022/03/13 01:31:32;;;;;;;26.95;17.95;;;;;;;;;;5091497;28;20044;-62
2022/03/13 01:33:58;;;;;;;29.20;18.75;;;;;;;;;;5073407;28;20069;-61
2022/03/13 01:36:25;;;;;;;27.92;17.95;;;;;;;;;;5091395;28;20043;-61
2022/03/13 01:38:56;;;;;;;26.35;17.95;;;;;;;;;;5091678;28;20033;-61
2022/03/13 01:41:23;;;;;;;29.25;17.98;;;;;;;;;;5073273;28;20080;-61
2022/03/13 01:43:50;;;;;;;27.60;17.65;;;;;;;;;;5091292;28;20068;-62
2022/03/13 01:46:16;;;;;;;34.58;18.27;;;;;;;;;;5091320;28;20047;-61
2022/03/13 01:48:57;;;;;;;28.85;17.98;;;;;;;;;;5090997;28;20042;-61
2022/03/13 01:51:25;;;;;;;25.02;17.10;;;;;;;;;;5091998;28;20040;-62
2022/03/13 01:53:52;;;;;;;28.00;17.63;;;;;;;;;;5095687;28;20051;-61
2022/03/13 01:56:18;;;;;;;27.10;18.65;;;;;;;;;;5077749;28;20070;-61
2022/03/13 01:58:44;;;;;;;28.50;18.23;;;;;;;;;;5095348;28;20075;-61
2022/03/13 02:01:12;;;;;;;23.48;17.02;;;;;;;;;;5077007;28;20075;-61
2022/03/13 02:03:38;;;;;;;27.23;18.15;;;;;;;;;;5095059;28;20134;-61
2022/03/13 02:06:04;;;;;;;26.50;17.98;;;;;;;;;;5095672;28;20439;-61
2022/03/13 02:08:30;;;;;;;28.05;18.00;;;;;;;;;;5095051;28;20554;-61
2022/03/13 02:10:59;;;;;;;28.05;18.10;;;;;;;;;;5095151;28;20040;-62
2022/03/13 02:13:26;;;;;;;29.85;17.67;;;;;;;;;;5077121;28;20051;-61
2022/03/13 02:15:55;;;;;;;27.73;18.05;;;;;;;;;;5095195;28;20071;-61
2022/03/13 02:18:21;;;;;;;28.83;17.92;;;;;;;;;;5095105;28;20660;-61
2022/03/13 02:20:47;;;;;;;27.10;16.88;;;;;;;;;;5094974;28;20040;-62
2022/03/13 02:23:18;;;;;;;31.17;18.60;;;;;;;;;;5095157;28;20044;-61
2022/03/13 02:25:44;;;;;;;;;;;;;;;;;;5095546;28;20036;-61
2022/03/13 02:28:10;;;;;;;30.02;17.58;;;;;;;;;;5094672;28;19923;-61
2022/03/13 02:30:36;;;;;;;28.35;17.50;;;;;;;;;;5094552;28;20035;-61
2022/03/13 02:33:02;;;;;;;29.00;18.08;;;;;;;;;;5094771;28;20119;-61
2022/03/13 02:35:32;;;;;;;28.15;17.35;;;;;;;;;;5094923;28;20036;-61
2022/03/13 02:37:58;;;;;;;30.13;18.42;;;;;;;;;;5094633;28;20039;-61
2022/03/13 02:40:25;;;;;;;27.58;17.38;;;;;;;;;;5094648;28;20040;-61
2022/03/13 02:42:51;;;;;;;26.67;17.60;;;;;;;;;;5094564;28;20048;-61
2022/03/13 02:45:44;;;;;;;27.65;17.15;;;;;;;;;;5075788;28;20054;-61
2022/03/13 02:48:11;;;;;;;28.30;18.23;;;;;;;;;;5089988;28;20131;-61
2022/03/13 02:50:38;;;;;;;28.95;18.17;;;;;;;;;;5093830;28;20044;-61
2022/03/13 02:53:05;;;;;;;27.50;17.08;;;;;;;;;;5094326;28;20115;-61
2022/03/13 02:55:31;;;;;;;25.10;16.98;;;;;;;;;;5094001;28;20047;-61
2022/03/13 02:57:57;;;;;;;25.30;17.23;;;;;;;;;;5094426;28;20043;-61
2022/03/13 03:00:40;;;;;;;24.05;16.95;;;;;;;;;;5092689;28;20443;-61
2022/03/13 03:03:06;;;;;;;28.52;17.52;;;;;;;;;;5099203;28;20047;-61
2022/03/13 03:05:32;;;;;;;26.90;17.55;;;;;;;;;;5113110;28;20043;-62
2022/03/13 03:07:58;;;;;;;25.52;17.10;;;;;;;;;;5113887;28;20040;-62
2022/03/13 03:10:24;;;;;;;30.42;17.67;;;;;;;;;;5114352;28;20078;-61
2022/03/13 03:12:50;;;;;;;28.40;17.20;;;;;;;;;;5111481;28;20036;-62
2022/03/13 03:15:19;;;;;;;26.85;17.25;;;;;;;;;;5075160;28;20051;-61
2022/03/13 03:17:45;;;;;;;26.85;16.77;;;;;;;;;;5093860;28;20162;-61
2022/03/13 03:20:12;;;;;;;28.75;17.88;;;;;;;;;;5093800;28;20067;-61
2022/03/13 03:22:38;;;;;;;27.88;17.42;;;;;;;;;;5093478;28;20570;-61
2022/03/13 03:25:05;;;;;;;26.20;17.50;;;;;;;;;;5093402;28;20035;-61
2022/03/13 03:27:31;;;;;;;25.77;17.20;;;;;;;;;;5093287;28;20043;-61
2022/03/13 03:30:00;;;;;;;26.60;18.02;;;;;;;;;;5093739;28;20040;-61
2022/03/13 03:32:26;;;;;;;25.30;17.63;;;;;;;;;;5074908;28;20046;-62
2022/03/13 03:34:52;;;;;;;27.63;17.20;;;;;;;;;;5093574;28;20123;-62
2022/03/13 03:37:18;;;;;;;28.52;17.05;;;;;;;;;;5075471;28;20044;-61
2022/03/13 03:39:44;;;;;;;25.80;16.63;;;;;;;;;;5093573;28;20031;-61
2022/03/13 03:42:10;;;;;;;25.70;17.17;;;;;;;;;;5093175;28;20131;-61
2022/03/13 03:44:36;;;;;;;24.58;16.83;;;;;;;;;;5093587;28;20032;-61
2022/03/13 03:47:02;;;;;;;30.55;17.88;;;;;;;;;;5093515;28;20111;-62
2022/03/13 03:49:28;;;;;;;24.55;17.45;;;;;;;;;;5093112;28;20044;-61
2022/03/13 03:51:54;;;;;;;26.90;17.60;;;;;;;;;;5093270;28;20044;-61
2022/03/13 03:54:20;;;;;;;27.15;17.73;;;;;;;;;;5093467;28;20036;-61
2022/03/13 03:56:46;;;;;;;28.88;17.17;;;;;;;;;;5093132;28;20040;-62
2022/03/13 03:59:12;;;;;;;28.27;17.42;;;;;;;;;;5093141;28;20429;-62
2022/03/13 04:01:39;;;;;;;23.58;16.55;;;;;;;;;;5093043;28;20039;-61
2022/03/13 04:04:06;;;;;;;26.40;17.75;;;;;;;;;;5075127;28;20040;-61
2022/03/13 04:06:33;;;;;;;28.35;17.67;;;;;;;;;;5093267;28;20069;-61
2022/03/13 04:09:00;;;;;;;26.70;17.70;;;;;;;;;;5093022;28;20051;-61
2022/03/13 04:11:25;;;;;;;25.92;17.35;;;;;;;;;;5074436;28;20421;-62
2022/03/13 04:13:51;;;;;;;26.55;17.70;;;;;;;;;;5092380;28;20040;-61
2022/03/13 04:16:17;;;;;;;27.92;17.40;;;;;;;;;;5092469;28;20040;-61
2022/03/13 04:18:43;;;;;;;28.20;17.90;;;;;;;;;;5092652;28;20494;-61
2022/03/13 04:21:10;;;;;;;27.58;17.65;;;;;;;;;;5092902;28;20075;-62
2022/03/13 04:23:36;;;;;;;27.67;17.48;;;;;;;;;;5092301;28;20040;-61
2022/03/13 04:26:04;;;;;;;32.30;18.23;;;;;;;;;;5073968;28;20075;-61
2022/03/13 04:28:30;;;;;;;28.73;17.98;;;;;;;;;;5092606;28;20563;-62
2022/03/13 04:30:59;;;;;;;27.73;17.17;;;;;;;;;;5091461;28;20051;-62
2022/03/13 04:33:26;;;;;;;29.17;16.75;;;;;;;;;;5092744;28;20048;-61
2022/03/13 04:35:53;;;;;;;27.17;17.17;;;;;;;;;;5074546;28;20036;-61
2022/03/13 04:38:19;;;;;;;28.67;17.40;;;;;;;;;;5073730;28;20035;-61
2022/03/13 04:40:46;;;;;;;28.08;17.33;;;;;;;;;;5091353;28;20044;-61
2022/03/13 04:43:12;;;;;;;25.52;16.77;;;;;;;;;;5074498;28;20048;-61
2022/03/13 04:45:38;;;;;;;24.58;16.48;;;;;;;;;;5073873;28;20056;-62
2022/03/13 04:48:04;;;;;;;27.15;17.40;;;;;;;;;;5091905;28;20048;-61
2022/03/13 04:50:30;;;;;;;26.48;17.02;;;;;;;;;;5092226;28;20036;-61
2022/03/13 04:52:56;;;;;;;24.85;16.60;;;;;;;;;;5091835;28;20077;-61
2022/03/13 04:55:22;;;;;;;26.45;16.70;;;;;;;;;;5092380;28;20044;-61
2022/03/13 04:57:48;;;;;;;24.95;16.50;;;;;;;;;;5073775;28;20040;-62
2022/03/13 05:00:14;;;;;;;27.95;16.20;;;;;;;;;;5073169;28;20123;-62
2022/03/13 05:02:40;;;;;;;26.63;17.20;;;;;;;;;;5089888;28;20074;-61
2022/03/13 05:05:07;;;;;;;27.38;16.77;;;;;;;;;;5090696;28;20044;-61
2022/03/13 05:07:38;;;;;;;28.70;17.65;;;;;;;;;;5072436;28;20048;-61
2022/03/13 05:10:05;;;;;;;27.08;17.15;;;;;;;;;;5073686;28;20048;-61
2022/03/13 05:12:30;;;;;;;28.00;16.70;;;;;;;;;;5091378;28;20486;-61
2022/03/13 05:14:57;;;;;;;26.20;17.67;;;;;;;;;;5091846;28;20036;-61
2022/03/13 05:17:23;;;;;;;30.02;18.15;;;;;;;;;;5091710;28;20044;-61
2022/03/13 05:19:49;;;;;;;27.02;15.90;;;;;;;;;;5092136;28;20402;-62
2022/03/13 05:22:15;;;;;;;26.85;16.98;;;;;;;;;;5090613;28;20493;-61
2022/03/13 05:24:41;;;;;;;25.15;16.45;;;;;;;;;;5091928;28;20040;-61
2022/03/13 05:27:07;;;;;;;27.90;16.83;;;;;;;;;;5090762;28;20044;-61
2022/03/13 05:29:33;;;;;;;26.17;16.58;;;;;;;;;;5091219;28;20554;-61
2022/03/13 05:31:58;;;;;;;25.17;16.38;;;;;;;;;;5098548;22;20057;-61
2022/03/13 05:34:24;;;;;;;25.00;16.60;;;;;;;;;;5071077;28;20405;-61
2022/03/13 05:36:51;;;;;;;25.33;15.98;;;;;;;;;;5070457;28;20082;-61
2022/03/13 05:39:17;;;;;;;28.77;16.52;;;;;;;;;;5071433;28;20078;-61
2022/03/13 05:41:43;;;;;;;26.23;16.50;;;;;;;;;;5075675;28;20048;-61
2022/03/13 05:44:11;;;;;;;24.23;16.95;;;;;;;;;;5091637;28;20052;-61
2022/03/13 05:46:37;;;;;;;25.85;16.85;;;;;;;;;;5091175;28;20101;-61
2022/03/13 05:49:04;;;;;;;29.27;16.40;;;;;;;;;;5091435;28;20040;-61
2022/03/13 05:51:37;;;;;;;24.55;15.52;;;;;;;;;;5091342;28;20051;-61
2022/03/13 05:54:04;;;;;;;26.92;15.27;;;;;;;;;;5091204;28;20040;-61
2022/03/13 05:56:30;;;;;;;23.65;15.60;;;;;;;;;;5091448;28;20044;-61
2022/03/13 05:58:56;;;;;;;25.30;16.30;;;;;;;;;;5091367;28;20036;-61
2022/03/13 06:01:22;;;;;;;24.90;16.35;;;;;;;;;;5091653;28;20036;-61
2022/03/13 06:03:48;;;;;;;28.27;16.90;;;;;;;;;;5090820;28;20095;-61
2022/03/13 06:06:14;;;;;;;25.88;16.80;;;;;;;;;;5091482;28;20044;-61
2022/03/13 06:08:41;;;;;;;26.23;16.17;;;;;;;;;;5091534;28;20153;-61
2022/03/13 06:11:08;;;;;;;22.17;15.18;;;;;;;;;;5090941;28;20044;-61
2022/03/13 06:13:34;;;;;;;24.75;14.98;;;;;;;;;;5091132;28;20040;-62
2022/03/13 06:16:00;;;;;;;25.52;15.50;;;;;;;;;;5091365;28;20602;-62
2022/03/13 06:18:31;;;;;;;24.30;15.77;;;;;;;;;;5090624;28;20036;-61
2022/03/13 06:20:57;;;;;;;;;;;;;;;;;;5091935;28;20048;-61
2022/03/13 06:23:24;;;;;;;22.40;15.85;;;;;;;;;;5090810;28;19915;-60
2022/03/13 06:25:50;;;;;;;25.83;15.73;;;;;;;;;;5091638;28;20036;-61
2022/03/13 06:28:16;;;;;;;22.00;14.48;;;;;;;;;;5090482;28;20066;-62
2022/03/13 06:30:43;;;;;;;28.10;15.70;;;;;;;;;;5091158;28;20086;-61
2022/03/13 06:33:09;;;;;;;24.25;15.13;;;;;;;;;;5090679;28;20040;-61
2022/03/13 06:35:35;;;;;;;25.98;14.65;;;;;;;;;;5091329;28;20047;-61
2022/03/13 06:38:00;;;;;;;24.48;15.75;;;;;;;;;;5090681;28;20036;-61
2022/03/13 06:40:26;;;;;;;24.15;15.93;;;;;;;;;;5095034;28;20063;-61
2022/03/13 06:42:53;;;;;;;22.63;15.18;;;;;;;;;;5094629;28;20044;-61
2022/03/13 06:45:20;;;;;;;24.77;14.88;;;;;;;;;;5094429;28;20073;-61
2022/03/13 06:47:49;;;;;;;24.77;15.07;;;;;;;;;;5093751;28;20028;-62
2022/03/13 06:50:16;;;;;;;25.50;14.25;;;;;;;;;;5094559;28;20051;-61
2022/03/13 06:52:44;;;;;;;26.05;14.95;;;;;;;;;;5094254;28;20615;-61
2022/03/13 06:55:13;;;;;;;22.63;15.63;;;;;;;;;;5093663;28;20051;-61
2022/03/13 06:57:39;;;;;;;21.35;14.65;;;;;;;;;;5094172;28;20559;-61
2022/03/13 07:00:06;;;;;;;26.08;15.18;;;;;;;;;;5094533;28;20036;-61
2022/03/13 07:02:32;;;;;;;24.98;14.85;;;;;;;;;;5093694;28;20032;-61
2022/03/13 07:04:58;;;;;;;24.00;15.55;;;;;;;;;;5094322;28;20093;-61
2022/03/13 07:07:24;;;;;;;23.83;14.98;;;;;;;;;;5094014;28;20036;-61
2022/03/13 07:09:51;;;;;;;21.17;13.68;;;;;;;;;;5093486;28;20072;-61
2022/03/13 07:12:18;;;;;;;24.52;14.43;;;;;;;;;;5094307;28;20065;-61
2022/03/13 07:14:47;;;;;;;25.45;15.23;;;;;;;;;;5093975;28;20051;-61
2022/03/13 07:17:13;;;;;;;21.42;14.10;;;;;;;;;;5094061;28;20036;-61
2022/03/13 07:19:43;;;;;;;21.70;14.05;;;;;;;;;;5093774;28;20043;-61
2022/03/13 07:22:10;;;;;;;20.00;13.38;;;;;;;;;;5093988;28;20098;-61
2022/03/13 07:24:36;;;;;;;20.30;13.75;;;;;;;;;;5093612;28;20433;-61
2022/03/13 07:27:02;;;;;;;21.58;14.20;;;;;;;;;;5094153;28;20044;-62
2022/03/13 07:29:28;;;;;;;22.10;13.98;;;;;;;;;;5093476;28;20450;-61
2022/03/13 07:31:56;;;;;;;19.90;13.40;;;;;;;;;;5093585;28;20494;-61
2022/03/13 07:34:22;;;;;;;22.17;14.20;;;;;;;;;;5092451;28;20047;-61
2022/03/13 07:36:49;;;;;;;21.10;13.40;;;;;;;;;;5093431;28;20524;-61
2022/03/13 07:39:16;;;;;;;22.48;13.52;;;;;;;;;;5093142;28;20543;-61
2022/03/13 07:41:42;;;;;;;19.75;13.75;;;;;;;;;;5093990;28;20044;-61
2022/03/13 07:44:08;;;;;;;21.17;13.52;;;;;;;;;;5093558;28;20044;-61
2022/03/13 07:46:34;;;;;;;25.00;14.20;;;;;;;;;;5093643;28;20062;-61
2022/03/13 07:49:00;;;;;;;20.40;13.38;;;;;;;;;;5092244;28;20493;-61
2022/03/13 07:51:26;;;;;;;21.23;13.40;;;;;;;;;;5092825;28;20455;-61
2022/03/13 07:53:52;;;;;;;19.50;13.52;;;;;;;;;;5092969;28;20079;-61
2022/03/13 07:56:18;;;;;;;23.63;12.90;;;;;;;;;;5093550;28;20044;-61
2022/03/13 07:58:44;;;;;;;19.52;13.15;;;;;;;;;;5093123;28;20042;-61
2022/03/13 08:01:10;;;;;;;24.55;14.38;;;;;;;;;;5093213;28;20119;-61
2022/03/13 08:03:38;;;;;;;20.45;13.75;;;;;;;;;;5093000;28;20067;-61
2022/03/13 08:06:04;;;;;;;20.60;13.23;;;;;;;;;;5091600;28;20044;-61
2022/03/13 08:08:31;;;;;;;19.67;12.50;;;;;;;;;;5092948;28;20036;-61
2022/03/13 08:11:00;;;;;;;23.70;12.23;;;;;;;;;;5093168;28;20127;-61
2022/03/13 08:13:26;;;;;;;21.13;13.73;;;;;;;;;;5092906;28;20401;-61
2022/03/13 08:15:52;;;;;;;26.38;13.32;;;;;;;;;;5092804;28;20447;-61
2022/03/13 08:18:18;;;;;;;22.38;12.60;;;;;;;;;;5092842;28;20475;-61
2022/03/13 08:20:45;;;;;;;20.92;13.05;;;;;;;;;;5091348;28;20035;-61
2022/03/13 08:23:11;;;;;;;19.85;12.35;;;;;;;;;;5092539;28;20068;-61
2022/03/13 08:25:37;;;;;;;20.63;11.93;;;;;;;;;;5092759;28;20512;-61
2022/03/13 08:28:03;;;;;;;21.60;13.18;;;;;;;;;;5092667;28;20118;-61
2022/03/13 08:30:29;;;;;;;21.40;12.07;;;;;;;;;;5091478;28;20497;-61
2022/03/13 08:32:55;;;;;;;21.08;12.68;;;;;;;;;;5090928;28;20097;-61
2022/03/13 08:35:21;;;;;;;19.77;12.10;;;;;;;;;;5092137;28;20048;-61
2022/03/13 08:37:47;;;;;;;19.77;12.68;;;;;;;;;;5092545;28;20036;-61
2022/03/13 08:40:13;;;;;;;21.70;12.63;;;;;;;;;;5091997;28;20058;-61
2022/03/13 08:42:40;;;;;;;17.45;12.15;;;;;;;;;;5092459;28;20086;-61
2022/03/13 08:45:08;;;;;;;20.38;12.20;;;;;;;;;;5091793;28;20111;-60
2022/03/13 08:47:34;;;;;;;20.48;12.68;;;;;;;;;;5092215;28;20075;-61
2022/03/13 08:50:00;;;;;;;20.87;12.07;;;;;;;;;;5091123;28;20063;-61
2022/03/13 08:52:26;;;;;;;19.67;12.55;;;;;;;;;;5092397;28;20036;-61
2022/03/13 08:54:52;;;;;;;18.23;12.48;;;;;;;;;;5092099;28;20552;-61
2022/03/13 08:57:18;;;;;;;19.33;12.05;;;;;;;;;;5091924;28;20087;-61
2022/03/13 08:59:44;;;;;;;19.70;12.25;;;;;;;;;;5091558;28;20040;-61
2022/03/13 09:02:11;;;;;;;20.92;12.35;;;;;;;;;;5091343;28;20036;-61
2022/03/13 09:04:37;;;;;;;21.15;12.35;;;;;;;;;;5091344;28;20157;-61
2022/03/13 09:07:03;;;;;;;20.77;13.48;;;;;;;;;;5092046;28;20126;-62
2022/03/13 09:09:28;;;;;;;19.77;13.05;;;;;;;;;;5091968;28;20044;-61
2022/03/13 09:11:56;;;;;;;17.67;11.90;;;;;;;;;;5091957;28;20051;-61
2022/03/13 09:14:23;;;;;;;17.77;12.73;;;;;;;;;;5090651;28;20052;-61
2022/03/13 09:16:49;;;;;;;20.48;12.77;;;;;;;;;;5091875;28;20044;-62
2022/03/13 09:19:15;;;;;;;18.90;12.48;;;;;;;;;;5091451;28;20393;-61
2022/03/13 09:21:41;;;;;;;19.25;12.10;;;;;;;;;;5092041;28;20090;-61
2022/03/13 09:24:08;;;;;;;19.27;11.80;;;;;;;;;;5091892;28;20039;-61
2022/03/13 09:26:39;;;;;;;19.67;12.18;;;;;;;;;;5092050;28;20036;-61
2022/03/13 09:29:06;;;;;;;20.83;12.88;;;;;;;;;;5090293;28;20405;-61
2022/03/13 09:31:32;;;;;;;18.25;12.48;;;;;;;;;;5091501;28;20044;-61
2022/03/13 09:33:58;;;;;;;19.83;13.18;;;;;;;;;;5091960;28;20044;-61
2022/03/13 09:36:25;;;;;;;20.05;13.32;;;;;;;;;;5092001;28;20036;-61
2022/03/13 09:38:51;;;;;;;18.73;12.80;;;;;;;;;;5091544;28;20047;-61
2022/03/13 09:41:17;;;;;;;20.67;12.77;;;;;;;;;;5091603;28;20052;-61
2022/03/13 09:43:43;;;;;;;17.38;12.00;;;;;;;;;;5091802;28;20063;-61
2022/03/13 09:46:09;;;;;;;19.85;12.38;;;;;;;;;;5091465;28;20497;-61
2022/03/13 09:48:36;;;;;;;19.42;11.85;;;;;;;;;;5091470;28;20040;-61
2022/03/13 09:51:04;;;;;;;18.25;12.48;;;;;;;;;;5091566;28;20413;-61
2022/03/13 09:53:39;;;;;;;18.10;12.52;;;;;;;;;;5090077;28;20138;-61
2022/03/13 09:56:06;;;;;;;22.20;13.07;;;;;;;;;;5091560;28;20116;-61
2022/03/13 09:58:32;;;;;;;19.73;11.95;;;;;;;;;;5091568;28;20036;-61
2022/03/13 10:00:59;;;;;;;20.85;12.43;;;;;;;;;;5091571;28;20067;-62
2022/03/13 10:03:25;;;;;;;18.05;11.50;;;;;;;;;;5091581;28;20036;-61
2022/03/13 10:05:53;;;;;;;18.92;12.23;;;;;;;;;;5091508;28;20036;-62
2022/03/13 10:08:20;;;;;;;18.08;12.55;;;;;;;;;;5090954;28;20044;-62
2022/03/13 10:10:48;;;;;;;19.08;12.63;;;;;;;;;;5091587;28;20479;-61
2022/03/13 10:13:15;;;;;;;18.80;11.90;;;;;;;;;;5093975;28;20032;-62
2022/03/13 10:15:42;;;;;;;19.70;11.65;;;;;;;;;;5095386;28;20428;-62
2022/03/13 10:18:12;;;;;;;20.42;12.32;;;;;;;;;;5095178;28;20093;-61
2022/03/13 10:20:39;;;;;;;21.20;12.32;;;;;;;;;;5094063;28;20482;-62
2022/03/13 10:23:11;;;;;;;19.30;12.18;;;;;;;;;;5094763;28;20371;-62
2022/03/13 10:25:41;;;;;;;19.52;12.18;;;;;;;;;;5095055;28;20047;-61
2022/03/13 10:28:26;;;;;;;20.10;12.50;;;;;;;;;;5094989;28;20044;-62
2022/03/13 10:30:56;;;;;;;20.23;12.90;;;;;;;;;;5093738;28;20090;-61
2022/03/13 10:33:22;;;;;;;18.65;12.70;;;;;;;;;;5094711;28;20035;-62
2022/03/13 10:35:48;;;;;;;21.13;13.07;;;;;;;;;;5095046;28;20459;-61
2022/03/13 10:38:17;;;;;;;20.02;12.30;;;;;;;;;;5094191;28;20036;-61
2022/03/13 10:40:43;;;;;;;21.30;12.95;;;;;;;;;;5094944;28;20051;-61
2022/03/13 10:43:09;;;;;;;19.23;11.63;;;;;;;;;;5095198;28;20048;-62
2022/03/13 10:45:39;;;;;;;19.35;12.27;;;;;;;;;;5094580;28;20040;-62
2022/03/13 10:48:18;;;;;;;18.85;12.77;;;;;;;;;;5094420;28;20048;-61
2022/03/13 10:50:45;;;;;;;22.02;13.63;;;;;;;;;;5094437;28;20059;-61
2022/03/13 10:53:12;;;;;;;17.00;11.45;;;;;;;;;;5094700;28;20036;-61
2022/03/13 10:55:38;;;;;;;21.27;13.05;;;;;;;;;;5093351;28;20074;-62
2022/03/13 10:58:05;;;;;;;20.58;12.70;;;;;;;;;;5094296;28;20036;-61
2022/03/13 11:00:31;;;;;;;17.80;11.93;;;;;;;;;;5094289;28;20040;-61
2022/03/13 11:03:10;;;;;;;18.55;12.02;;;;;;;;;;5094176;28;20078;-61
2022/03/13 11:05:37;;;;;;;18.80;12.32;;;;;;;;;;5093821;28;20401;-61
2022/03/13 11:08:04;;;;;;;21.60;13.10;;;;;;;;;;5094262;28;20055;-61
2022/03/13 11:10:30;;;;;;;20.35;12.50;;;;;;;;;;5094188;28;20129;-62
2022/03/13 11:12:57;;;;;;;17.95;11.50;;;;;;;;;;5094043;28;20044;-61
2022/03/13 11:15:31;;;;;;;17.25;12.20;;;;;;;;;;5094013;28;20040;-61
2022/03/13 11:17:59;;;;;;;20.25;13.05;;;;;;;;;;5094110;28;20218;-61
2022/03/13 11:20:25;;;;;;;17.95;12.30;;;;;;;;;;5093190;28;20044;-61
2022/03/13 11:22:51;;;;;;;20.30;12.60;;;;;;;;;;5093222;28;20044;-61
2022/03/13 11:25:18;;;;;;;21.67;13.20;;;;;;;;;;5093027;28;20050;-61
2022/03/13 11:27:45;;;;;;;22.17;12.82;;;;;;;;;;5092757;28;20075;-62
2022/03/13 11:30:15;;;;;;;20.73;12.73;;;;;;;;;;5092702;28;20051;-61
2022/03/13 11:32:49;;;;;;;21.90;12.68;;;;;;;;;;5097423;22;20502;-62
2022/03/13 11:35:18;;;;;;;19.83;12.63;;;;;;;;;;5056696;28;20040;-62
2022/03/13 11:37:45;;;;;;;19.10;12.55;;;;;;;;;;5072666;28;20085;-62
2022/03/13 11:40:12;;;;;;;21.80;13.60;;;;;;;;;;5055311;28;20066;-62
2022/03/13 11:42:48;;;;;;;20.67;12.65;;;;;;;;;;5055434;28;20037;-63
2022/03/13 11:45:33;;;;;;;20.15;13.63;;;;;;;;;;5072864;28;20089;-62
2022/03/13 11:48:05;;;;;;;19.42;13.18;;;;;;;;;;5055302;28;20410;-63
2022/03/13 11:50:47;;;;;;;21.02;13.15;;;;;;;;;;5072723;28;20032;-63
2022/03/13 11:53:23;;;;;;;19.70;12.65;;;;;;;;;;5072908;28;20503;-62
2022/03/13 11:55:59;;;;;;;18.25;12.82;;;;;;;;;;5054895;28;20093;-63
2022/03/13 11:58:40;;;;;;;20.23;13.07;;;;;;;;;;5072941;28;20075;-62
2022/03/13 12:01:07;;;;;;;17.88;12.77;;;;;;;;;;5072426;28;20052;-62
2022/03/13 12:03:33;;;;;;;23.75;13.57;;;;;;;;;;5073136;28;20054;-62
2022/03/13 12:05:59;;;;;;;18.98;12.15;;;;;;;;;;5054702;28;20048;-63
2022/03/13 12:08:26;;;;;;;20.20;11.75;;;;;;;;;;5072333;28;20502;-62
2022/03/13 12:10:53;;;;;;;19.15;13.27;;;;;;;;;;5054968;28;20044;-63
2022/03/13 12:13:20;;;;;;;19.85;13.07;;;;;;;;;;5072729;28;20044;-63
2022/03/13 12:15:46;;;;;;;20.63;12.43;;;;;;;;;;5072829;28;20102;-62
2022/03/13 12:18:28;;;;;;;21.15;12.30;;;;;;;;;;5054668;28;20052;-62
2022/03/13 12:20:55;;;;;;;23.02;13.43;;;;;;;;;;5054654;28;20060;-60
2022/03/13 12:23:26;;;;;;;18.73;12.68;;;;;;;;;;5054669;28;20040;-60
2022/03/13 12:25:53;;;;;;;20.85;13.02;;;;;;;;;;5071668;28;20083;-62
2022/03/13 12:28:20;;;;;;;17.77;12.57;;;;;;;;;;5072450;28;20040;-61
2022/03/13 12:30:46;;;;;;;18.17;12.70;;;;;;;;;;5072556;28;20110;-61
2022/03/13 12:33:14;;;;;;;19.95;13.43;;;;;;;;;;5071555;28;20047;-62
2022/03/13 12:35:42;;;;;;;19.10;12.82;;;;;;;;;;5053598;28;20110;-61
2022/03/13 12:38:08;;;;;;;19.70;13.35;;;;;;;;;;5071987;28;20090;-61
2022/03/13 12:40:46;;;;;;;19.15;13.48;;;;;;;;;;5072103;28;20383;-62
2022/03/13 12:43:13;;;;;;;17.42;12.32;;;;;;;;;;5054183;28;20516;-62
2022/03/13 12:45:51;;;;;;;19.35;12.82;;;;;;;;;;5071872;28;20066;-61
2022/03/13 12:48:17;;;;;;;18.50;12.70;;;;;;;;;;5071811;28;20087;-62
2022/03/13 12:50:47;;;;;;;20.85;13.15;;;;;;;;;;5053635;28;20080;-61
2022/03/13 12:53:18;;;;;;;18.17;12.88;;;;;;;;;;5071929;28;20120;-61
2022/03/13 12:55:50;;;;;;;23.92;15.77;;;;;;;;;;5072133;28;20040;-61
2022/03/13 12:58:16;;;;;;;20.40;13.38;;;;;;;;;;5071974;28;20033;-61
2022/03/13 13:00:43;;;;;;;19.63;12.52;;;;;;;;;;5071709;28;20059;-62
2022/03/13 13:03:09;;;;;;;18.95;12.85;;;;;;;;;;5053996;28;20044;-62
2022/03/13 13:05:35;;;;;;;20.35;12.80;;;;;;;;;;5053789;28;20047;-61
2022/03/13 13:08:01;;;;;;;17.70;12.07;;;;;;;;;;5070968;28;20123;-61
2022/03/13 13:10:27;;;;;;;17.80;12.35;;;;;;;;;;5072039;28;20075;-61
2022/03/13 13:12:53;;;;;;;16.52;11.85;;;;;;;;;;5071614;28;20371;-61
2022/03/13 13:15:22;;;;;;;17.98;11.57;;;;;;;;;;5053585;28;20501;-61
2022/03/13 13:17:51;;;;;;;18.48;12.77;;;;;;;;;;5071048;28;20032;-62
2022/03/13 13:20:22;;;;;;;16.27;11.90;;;;;;;;;;5071670;28;20571;-61
2022/03/13 13:22:48;;;;;;;20.30;14.43;;;;;;;;;;5053551;28;20033;-62
2022/03/13 13:25:19;;;;;;;18.48;11.88;;;;;;;;;;5053354;28;20125;-61
2022/03/13 13:27:46;;;;;;;;;;;;;;;;;;5071426;28;20040;-61
2022/03/13 13:30:15;;;;;;;17.05;11.32;;;;;;;;;;5071654;28;19920;-61
2022/03/13 13:32:48;;;;;;;16.60;12.05;;;;;;;;;;5070540;28;20437;-61
2022/03/13 13:35:21;;;;;;;18.08;11.98;;;;;;;;;;5071826;28;20123;-61
2022/03/13 13:37:55;;;;;;;15.40;11.13;;;;;;;;;;5071289;28;20051;-61
2022/03/13 13:40:22;;;;;;;15.70;11.43;;;;;;;;;;5070983;28;20387;-61
2022/03/13 13:42:54;;;;;;;18.05;11.93;;;;;;;;;;5071217;28;20041;-61
2022/03/13 13:45:27;;;;;;;19.48;12.30;;;;;;;;;;5053923;28;20123;-61
2022/03/13 13:47:53;;;;;;;16.30;10.45;;;;;;;;;;5073463;28;20046;-62
2022/03/13 13:50:22;;;;;;;14.55;10.25;;;;;;;;;;5075162;28;20111;-61
2022/03/13 13:53:02;;;;;;;18.02;10.90;;;;;;;;;;5075185;28;20078;-61
2022/03/13 13:55:28;;;;;;;15.00;10.65;;;;;;;;;;5075018;28;20490;-62
2022/03/13 13:58:34;;;;;;;15.27;11.00;;;;;;;;;;5074971;28;20440;-62
2022/03/13 14:01:19;;;;;;;13.98;9.77;;;;;;;;;;4974301;28;20448;-62
2022/03/13 14:03:45;;;;;;;13.30;9.60;;;;;;;;;;4973685;28;20046;-61
2022/03/13 14:06:12;;;;;;;14.73;9.85;;;;;;;;;;5035586;28;20053;-62
2022/03/13 14:08:38;;;;;;;13.95;10.50;;;;;;;;;;5074792;28;20079;-62
2022/03/13 14:11:04;;;;;;;14.82;10.25;;;;;;;;;;5075022;28;20513;-62
2022/03/13 14:13:30;;;;;;;15.27;10.57;;;;;;;;;;5074162;28;20119;-62
2022/03/13 14:15:56;;;;;;;15.60;10.65;;;;;;;;;;5075009;28;20502;-62
2022/03/13 14:18:22;;;;;;;14.48;10.32;;;;;;;;;;5074301;28;20126;-61
2022/03/13 14:20:48;;;;;;;13.23;9.52;;;;;;;;;;5075263;28;20445;-62